createdAt,value
2023-05-24T00:00:29.549Z,38.71
2023-05-24T00:01:29.511Z,38.65
2023-05-24T00:02:29.638Z,38.76
2023-05-24T00:03:29.602Z,38.70
2023-05-24T00:04:29.554Z,38.69
2023-05-24T00:05:29.543Z,38.73
2023-05-24T00:06:29.517Z,38.74
2023-05-24T00:07:29.533Z,38.70
2023-05-24T00:08:29.504Z,38.69
2023-05-24T00:09:29.534Z,38.74
2023-05-24T00:10:29.529Z,38.71
2023-05-24T00:11:29.531Z,38.75
2023-05-24T00:12:29.538Z,38.75
2023-05-24T00:13:29.534Z,38.72
2023-05-24T00:14:29.535Z,38.72
2023-05-24T00:15:29.521Z,38.72
2023-05-24T00:16:29.565Z,38.71
2023-05-24T00:17:29.555Z,38.75
2023-05-24T00:18:29.515Z,38.76
2023-05-24T00:19:29.544Z,38.77
2023-05-24T00:20:29.576Z,38.76
2023-05-24T00:21:29.564Z,38.75
2023-05-24T00:22:29.554Z,38.76
2023-05-24T00:23:29.558Z,38.73
2023-05-24T00:24:29.576Z,38.77
2023-05-24T00:25:29.597Z,38.76
2023-05-24T00:26:29.620Z,38.75
2023-05-24T00:27:29.621Z,38.77
2023-05-24T00:28:29.640Z,38.78
2023-05-24T00:29:31.484Z,38.78
2023-05-24T00:30:29.648Z,38.78
2023-05-24T00:31:29.645Z,38.78
2023-05-24T00:32:29.640Z,38.72
2023-05-24T00:33:29.630Z,38.78
2023-05-24T00:34:29.623Z,38.77
2023-05-24T00:35:29.613Z,38.74
2023-05-24T00:36:29.609Z,38.74
2023-05-24T00:37:29.632Z,38.73
2023-05-24T00:38:29.585Z,38.74
2023-05-24T00:39:29.596Z,38.77
2023-05-24T00:40:29.615Z,38.76
2023-05-24T00:41:29.575Z,38.75
2023-05-24T00:42:29.570Z,38.73
2023-05-24T00:43:29.554Z,38.75
2023-05-24T00:44:29.569Z,38.78
2023-05-24T00:45:30.843Z,38.78
2023-05-24T00:46:29.775Z,38.78
2023-05-24T00:47:29.564Z,38.78
2023-05-24T00:48:29.551Z,38.79
2023-05-24T00:49:29.536Z,38.77
2023-05-24T00:50:29.537Z,38.80
2023-05-24T00:51:29.543Z,38.79
2023-05-24T00:52:29.542Z,38.74
2023-05-24T00:53:29.535Z,38.78
2023-05-24T00:54:29.537Z,38.73
2023-05-24T00:55:29.539Z,38.75
2023-05-24T00:56:29.541Z,38.79
2023-05-24T00:57:29.542Z,38.78
2023-05-24T00:58:29.548Z,38.75
2023-05-24T00:59:29.547Z,38.79
2023-05-24T01:00:29.595Z,38.77
2023-05-24T01:01:29.643Z,38.79
2023-05-24T01:02:29.652Z,38.78
2023-05-24T01:03:29.761Z,38.78
2023-05-24T01:04:29.593Z,38.75
2023-05-24T01:05:29.590Z,38.75
2023-05-24T01:06:29.607Z,38.77
2023-05-24T01:07:29.590Z,38.71
2023-05-24T01:08:29.590Z,38.77
2023-05-24T01:09:29.598Z,38.80
2023-05-24T01:10:29.604Z,38.75
2023-05-24T01:11:29.589Z,38.76
2023-05-24T01:12:29.596Z,38.73
2023-05-24T01:13:29.637Z,38.75
2023-05-24T01:14:29.598Z,38.73
2023-05-24T01:15:29.600Z,38.76
2023-05-24T01:16:29.612Z,38.74
2023-05-24T01:17:29.668Z,38.75
2023-05-24T01:18:29.592Z,38.75
2023-05-24T01:19:29.588Z,38.73
2023-05-24T01:20:29.672Z,38.73
2023-05-24T01:21:29.641Z,38.76
2023-05-24T01:22:29.631Z,38.77
2023-05-24T01:23:29.604Z,38.77
2023-05-24T01:24:29.593Z,38.73
2023-05-24T01:25:29.592Z,38.76
2023-05-24T01:26:29.653Z,38.76
2023-05-24T01:27:29.611Z,38.73
2023-05-24T01:28:29.590Z,38.75
2023-05-24T01:29:29.589Z,38.75
2023-05-24T01:30:29.590Z,38.78
2023-05-24T01:31:29.638Z,38.73
2023-05-24T01:32:29.597Z,38.73
2023-05-24T01:33:29.617Z,38.77
2023-05-24T01:34:29.590Z,38.74
2023-05-24T01:35:29.592Z,38.76
2023-05-24T01:36:29.603Z,38.76
2023-05-24T01:37:29.587Z,38.76
2023-05-24T01:38:29.594Z,38.76
2023-05-24T01:39:29.590Z,38.74
2023-05-24T01:40:29.604Z,38.76
2023-05-24T01:41:29.590Z,38.78
2023-05-24T01:42:29.590Z,38.73
2023-05-24T01:43:29.590Z,38.72
2023-05-24T01:44:29.585Z,38.76
2023-05-24T01:45:29.601Z,38.73
2023-05-24T01:46:29.672Z,38.74
2023-05-24T01:47:29.622Z,38.76
2023-05-24T01:48:29.583Z,38.74
2023-05-24T01:49:29.622Z,38.70
2023-05-24T01:50:29.599Z,38.76
2023-05-24T01:51:29.607Z,38.69
2023-05-24T01:52:29.634Z,38.74
2023-05-24T01:53:29.644Z,38.73
2023-05-24T01:54:29.677Z,38.70
2023-05-24T01:55:29.732Z,38.74
2023-05-24T01:56:29.726Z,38.74
2023-05-24T01:57:29.751Z,38.74
2023-05-24T01:58:29.781Z,38.70
2023-05-24T01:59:29.796Z,38.72
2023-05-24T02:00:29.830Z,38.71
2023-05-24T02:01:29.894Z,38.68
2023-05-24T02:02:29.914Z,38.71
2023-05-24T02:03:29.933Z,38.72
2023-05-24T02:04:29.925Z,38.72
2023-05-24T02:05:29.960Z,38.72
2023-05-24T02:06:29.958Z,38.73
2023-05-24T02:07:30.590Z,38.73
2023-05-24T02:08:29.996Z,38.70
2023-05-24T02:09:30.028Z,38.73
2023-05-24T02:10:30.043Z,38.68
2023-05-24T02:11:30.064Z,38.72
2023-05-24T02:12:30.081Z,38.69
2023-05-24T02:13:30.110Z,38.73
2023-05-24T02:14:30.130Z,38.74
2023-05-24T02:15:30.161Z,38.72
2023-05-24T02:16:30.255Z,38.73
2023-05-24T02:17:30.262Z,38.74
2023-05-24T02:18:30.225Z,38.69
2023-05-24T02:19:30.252Z,38.63
2023-05-24T02:20:30.363Z,38.72
2023-05-24T02:21:30.338Z,38.68
2023-05-24T02:22:30.341Z,38.73
2023-05-24T02:23:30.371Z,38.74
2023-05-24T02:24:30.397Z,38.74
2023-05-24T02:25:30.413Z,38.70
2023-05-24T02:26:30.444Z,38.68
2023-05-24T02:27:30.477Z,38.66
2023-05-24T02:28:30.506Z,38.69
2023-05-24T02:29:30.541Z,38.70
2023-05-24T02:30:30.570Z,38.71
2023-05-24T02:31:30.830Z,38.70
2023-05-24T02:32:30.623Z,38.69
2023-05-24T02:33:30.652Z,38.73
2023-05-24T02:34:30.655Z,38.74
2023-05-24T02:35:30.689Z,38.73
2023-05-24T02:36:30.726Z,38.71
2023-05-24T02:37:30.767Z,38.73
2023-05-24T02:38:30.767Z,38.69
2023-05-24T02:39:30.799Z,38.69
2023-05-24T02:40:30.832Z,38.64
2023-05-24T02:41:30.882Z,38.69
2023-05-24T02:42:30.908Z,38.73
2023-05-24T02:43:30.921Z,38.67
2023-05-24T02:44:30.979Z,38.69
2023-05-24T02:45:30.991Z,38.66
2023-05-24T02:46:31.064Z,38.69
2023-05-24T02:47:31.076Z,38.70
2023-05-24T02:48:31.079Z,38.71
2023-05-24T02:49:31.115Z,38.69
2023-05-24T02:50:31.128Z,38.70
2023-05-24T02:51:31.169Z,38.66
2023-05-24T02:52:31.200Z,38.67
2023-05-24T02:53:31.258Z,38.66
2023-05-24T02:54:31.272Z,38.67
2023-05-24T02:55:31.309Z,38.70
2023-05-24T02:56:31.325Z,38.66
2023-05-24T02:57:31.355Z,38.66
2023-05-24T02:58:31.412Z,38.61
2023-05-24T02:59:31.430Z,38.65
2023-05-24T03:00:31.498Z,38.69
2023-05-24T03:01:31.532Z,38.69
2023-05-24T03:02:31.566Z,38.67
2023-05-24T03:03:31.633Z,38.70
2023-05-24T03:04:31.588Z,38.67
2023-05-24T03:05:31.637Z,38.66
2023-05-24T03:06:31.692Z,38.73
2023-05-24T03:07:31.708Z,38.68
2023-05-24T03:08:31.729Z,38.67
2023-05-24T03:09:31.778Z,38.64
2023-05-24T03:10:31.777Z,38.67
2023-05-24T03:11:31.815Z,38.67
2023-05-24T03:12:32.344Z,38.67
2023-05-24T03:13:31.876Z,38.62
2023-05-24T03:14:31.901Z,38.64
2023-05-24T03:15:31.939Z,38.66
2023-05-24T03:16:32.117Z,38.67
2023-05-24T03:17:32.066Z,38.66
2023-05-24T03:18:32.041Z,38.68
2023-05-24T03:19:32.106Z,38.68
2023-05-24T03:20:32.156Z,38.67
2023-05-24T03:21:32.162Z,38.66
2023-05-24T03:22:32.192Z,38.68
2023-05-24T03:23:32.227Z,38.63
2023-05-24T03:24:32.895Z,38.66
2023-05-24T03:25:32.317Z,38.62
2023-05-24T03:26:32.331Z,38.66
2023-05-24T03:27:32.384Z,38.70
2023-05-24T03:28:32.405Z,38.68
2023-05-24T03:29:32.457Z,38.68
2023-05-24T03:30:32.476Z,38.63
2023-05-24T03:31:32.592Z,38.65
2023-05-24T03:32:32.577Z,38.65
2023-05-24T03:33:32.599Z,38.65
2023-05-24T03:34:32.638Z,38.63
2023-05-24T03:35:32.654Z,38.62
2023-05-24T03:36:32.699Z,38.66
2023-05-24T03:37:32.726Z,38.64
2023-05-24T03:38:32.760Z,38.63
2023-05-24T03:39:32.811Z,38.66
2023-05-24T03:40:32.837Z,38.63
2023-05-24T03:41:32.894Z,38.66
2023-05-24T03:42:32.915Z,38.66
2023-05-24T03:43:32.928Z,38.68
2023-05-24T03:44:32.958Z,38.59
2023-05-24T03:45:38.981Z,38.66
2023-05-24T03:46:32.997Z,38.62
2023-05-24T03:47:33.004Z,38.64
2023-05-24T03:48:32.978Z,38.63
2023-05-24T03:49:33.052Z,38.66
2023-05-24T03:50:32.970Z,38.63
2023-05-24T03:51:32.958Z,38.60
2023-05-24T03:52:32.969Z,38.63
2023-05-24T03:53:32.944Z,38.66
2023-05-24T03:54:32.945Z,38.60
2023-05-24T03:55:32.934Z,38.68
2023-05-24T03:56:32.958Z,38.62
2023-05-24T03:57:32.935Z,38.59
2023-05-24T03:58:32.917Z,38.62
2023-05-24T03:59:32.899Z,38.64
2023-05-24T04:00:32.946Z,38.59
2023-05-24T04:01:34.457Z,38.59
2023-05-24T04:02:32.978Z,38.57
2023-05-24T04:03:32.937Z,38.59
2023-05-24T04:04:32.866Z,38.59
2023-05-24T04:05:32.858Z,38.58
2023-05-24T04:06:32.853Z,38.60
2023-05-24T04:07:32.847Z,38.57
2023-05-24T04:08:32.836Z,38.63
2023-05-24T04:09:32.852Z,38.61
2023-05-24T04:10:32.834Z,38.60
2023-05-24T04:11:32.830Z,38.60
2023-05-24T04:12:32.813Z,38.60
2023-05-24T04:13:32.833Z,38.65
2023-05-24T04:14:32.807Z,38.59
2023-05-24T04:15:32.795Z,38.58
2023-05-24T04:16:32.800Z,38.58
2023-05-24T04:17:32.860Z,38.60
2023-05-24T04:18:32.839Z,38.59
2023-05-24T04:19:32.768Z,38.59
2023-05-24T04:20:32.855Z,38.58
2023-05-24T04:21:32.752Z,38.55
2023-05-24T04:22:32.753Z,38.60
2023-05-24T04:23:32.745Z,38.57
2023-05-24T04:24:32.744Z,38.57
2023-05-24T04:25:32.730Z,38.60
2023-05-24T04:26:32.718Z,38.57
2023-05-24T04:27:32.717Z,38.59
2023-05-24T04:28:32.710Z,38.57
2023-05-24T04:29:32.736Z,38.62
2023-05-24T04:30:32.704Z,38.62
2023-05-24T04:31:32.791Z,38.60
2023-05-24T04:32:32.827Z,38.63
2023-05-24T04:33:32.762Z,38.59
2023-05-24T04:34:32.805Z,38.61
2023-05-24T04:35:32.831Z,38.58
2023-05-24T04:36:32.884Z,38.60
2023-05-24T04:37:32.915Z,38.62
2023-05-24T04:38:32.936Z,38.58
2023-05-24T04:39:33.439Z,38.60
2023-05-24T04:40:33.017Z,38.57
2023-05-24T04:41:33.042Z,38.59
2023-05-24T04:42:33.079Z,38.62
2023-05-24T04:43:33.108Z,38.59
2023-05-24T04:44:33.154Z,38.60
2023-05-24T04:45:33.208Z,38.51
2023-05-24T04:46:33.240Z,38.59
2023-05-24T04:47:33.275Z,38.55
2023-05-24T04:48:33.295Z,38.57
2023-05-24T04:49:33.350Z,38.55
2023-05-24T04:50:33.372Z,38.57
2023-05-24T04:51:33.416Z,38.57
2023-05-24T04:52:33.454Z,38.53
2023-05-24T04:53:33.487Z,38.54
2023-05-24T04:54:33.548Z,38.57
2023-05-24T04:55:33.580Z,38.55
2023-05-24T04:56:33.616Z,38.57
2023-05-24T04:57:33.651Z,38.58
2023-05-24T04:58:33.699Z,38.59
2023-05-24T04:59:33.738Z,38.54
2023-05-24T05:00:33.766Z,38.54
2023-05-24T05:01:33.882Z,38.55
2023-05-24T05:02:33.874Z,38.55
2023-05-24T05:03:34.004Z,38.55
2023-05-24T05:04:33.924Z,38.55
2023-05-24T05:05:33.961Z,38.57
2023-05-24T05:06:34.020Z,38.51
2023-05-24T05:07:34.061Z,38.57
2023-05-24T05:08:34.068Z,38.55
2023-05-24T05:09:34.106Z,38.53
2023-05-24T05:10:34.156Z,38.55
2023-05-24T05:11:34.186Z,38.52
2023-05-24T05:12:34.228Z,38.55
2023-05-24T05:13:34.270Z,38.52
2023-05-24T05:14:34.714Z,38.54
2023-05-24T05:15:34.716Z,38.51
2023-05-24T05:16:34.749Z,38.54
2023-05-24T05:17:34.888Z,38.57
2023-05-24T05:18:34.720Z,38.53
2023-05-24T05:19:34.705Z,38.67
2023-05-24T05:20:35.259Z,38.69
2023-05-24T05:21:34.699Z,38.69
2023-05-24T05:22:34.707Z,38.74
2023-05-24T05:23:34.729Z,38.70
2023-05-24T05:24:35.181Z,38.76
2023-05-24T05:25:34.738Z,38.84
2023-05-24T05:26:34.801Z,38.85
2023-05-24T05:27:35.010Z,38.83
2023-05-24T05:28:35.040Z,38.85
2023-05-24T05:29:36.058Z,38.94
2023-05-24T05:30:34.998Z,38.92
2023-05-24T05:31:35.198Z,38.98
2023-05-24T05:32:35.263Z,39.00
2023-05-24T05:33:35.162Z,39.17
2023-05-24T05:34:35.194Z,39.20
2023-05-24T05:35:35.116Z,39.22
2023-05-24T05:36:35.171Z,39.20
2023-05-24T05:37:35.713Z,39.15
2023-05-24T05:38:35.172Z,39.12
2023-05-24T05:39:35.225Z,39.22
2023-05-24T05:40:35.262Z,39.22
2023-05-24T05:41:35.747Z,39.31
2023-05-24T05:42:35.303Z,39.28
2023-05-24T05:43:35.310Z,39.31
2023-05-24T05:44:35.736Z,39.34
2023-05-24T05:45:35.729Z,39.28
2023-05-24T05:46:36.203Z,39.33
2023-05-24T05:47:35.750Z,39.40
2023-05-24T05:48:35.740Z,39.55
2023-05-24T05:49:35.782Z,39.50
2023-05-24T05:50:35.669Z,39.51
2023-05-24T05:51:35.686Z,39.64
2023-05-24T05:52:35.924Z,39.59
2023-05-24T05:53:35.497Z,39.58
2023-05-24T05:54:38.905Z,39.59
2023-05-24T05:56:51.386Z,39.88
2023-05-24T05:57:38.971Z,40.10
2023-05-24T05:58:35.736Z,39.71
2023-05-24T05:59:51.361Z,39.64
2023-05-24T06:00:35.739Z,39.54
2023-05-24T06:01:39.385Z,39.59
2023-05-24T06:03:39.259Z,39.67
2023-05-24T06:04:35.746Z,39.73
2023-05-24T06:06:51.380Z,39.74
2023-05-24T06:07:43.130Z,39.73
2023-05-24T06:08:35.737Z,39.74
2023-05-24T06:09:35.737Z,39.74
2023-05-24T06:10:36.278Z,39.73
2023-05-24T06:11:36.184Z,39.77
2023-05-24T06:12:36.185Z,39.77
2023-05-24T06:13:35.735Z,39.70
2023-05-24T06:14:35.735Z,39.67
2023-05-24T06:15:35.756Z,39.71
2023-05-24T06:16:35.866Z,39.70
2023-05-24T06:17:35.775Z,39.68
2023-05-24T06:18:35.757Z,39.72
2023-05-24T06:19:43.164Z,39.65
2023-05-24T06:20:35.744Z,39.67
2023-05-24T06:21:35.694Z,39.64
2023-05-24T06:22:35.778Z,39.61
2023-05-24T06:23:35.311Z,39.64
2023-05-24T06:24:35.325Z,39.68
2023-05-24T06:25:35.299Z,39.60
2023-05-24T06:26:35.305Z,39.65
2023-05-24T06:27:35.288Z,39.60
2023-05-24T06:28:35.289Z,39.57
2023-05-24T06:29:35.757Z,39.59
2023-05-24T06:30:35.561Z,39.55
2023-05-24T06:31:35.288Z,39.60
2023-05-24T06:32:35.287Z,39.57
2023-05-24T06:33:37.618Z,39.58
2023-05-24T06:34:35.752Z,39.54
2023-05-24T06:35:35.240Z,39.53
2023-05-24T06:36:35.232Z,39.54
2023-05-24T06:37:35.225Z,39.59
2023-05-24T06:38:35.250Z,39.54
2023-05-24T06:39:35.765Z,39.49
2023-05-24T06:40:35.200Z,39.49
2023-05-24T06:41:35.759Z,39.45
2023-05-24T06:42:35.192Z,39.54
2023-05-24T06:43:35.187Z,39.48
2023-05-24T06:44:35.170Z,39.47
2023-05-24T06:45:35.173Z,39.45
2023-05-24T06:46:35.222Z,39.47
2023-05-24T06:47:35.241Z,39.41
2023-05-24T06:48:35.239Z,39.44
2023-05-24T06:49:35.150Z,39.47
2023-05-24T06:50:35.151Z,39.45
2023-05-24T06:51:35.208Z,39.42
2023-05-24T06:52:35.137Z,39.45
2023-05-24T06:55:35.147Z,39.43
2023-05-24T06:56:50.817Z,39.43
2023-05-24T06:57:36.220Z,39.41
2023-05-24T06:58:38.298Z,39.42
2023-05-24T06:59:35.101Z,39.41
2023-05-24T07:01:07.084Z,39.41
2023-05-24T07:01:35.082Z,39.37
2023-05-24T07:02:35.200Z,39.32
2023-05-24T07:03:35.056Z,39.34
2023-05-24T07:04:35.102Z,39.41
2023-05-24T07:05:35.051Z,39.41
2023-05-24T07:06:35.206Z,39.41
2023-05-24T07:07:35.205Z,39.43
2023-05-24T07:08:35.030Z,39.34
2023-05-24T07:09:35.017Z,39.30
2023-05-24T07:10:35.008Z,39.33
2023-05-24T07:11:35.332Z,39.27
2023-05-24T07:12:34.997Z,39.25
2023-05-24T07:13:35.220Z,39.31
2023-05-24T07:14:35.009Z,39.35
2023-05-24T07:15:35.026Z,39.34
2023-05-24T07:16:35.035Z,39.32
2023-05-24T07:17:35.233Z,39.35
2023-05-24T07:18:34.980Z,39.27
2023-05-24T07:19:50.648Z,39.30
2023-05-24T07:20:35.005Z,39.30
2023-05-24T07:21:35.202Z,39.33
2023-05-24T07:22:35.141Z,39.36
2023-05-24T07:23:35.775Z,39.35
2023-05-24T07:24:34.940Z,39.31
2023-05-24T07:25:34.937Z,39.31
2023-05-24T07:26:34.929Z,39.35
2023-05-24T07:27:35.239Z,39.29
2023-05-24T07:28:34.913Z,39.20
2023-05-24T07:29:34.918Z,39.22
2023-05-24T07:30:34.915Z,39.22
2023-05-24T07:31:35.220Z,39.10
2023-05-24T07:32:35.100Z,39.10
2023-05-24T07:33:34.908Z,39.32
2023-05-24T07:34:38.409Z,39.32
2023-05-24T07:35:42.313Z,39.40
2023-05-24T07:36:35.187Z,39.43
2023-05-24T07:37:43.177Z,39.56
2023-05-24T07:38:42.531Z,39.60
2023-05-24T07:39:34.973Z,39.77
2023-05-24T07:41:42.415Z,39.96
2023-05-24T07:42:36.380Z,39.99
2023-05-24T07:43:35.126Z,40.11
2023-05-24T07:44:42.823Z,40.25
2023-05-24T07:45:38.104Z,40.30
2023-05-24T07:46:38.171Z,40.46
2023-05-24T07:47:38.480Z,39.56
2023-05-24T07:48:34.892Z,39.52
2023-05-24T07:49:35.285Z,39.72
2023-05-24T07:50:34.887Z,39.66
2023-05-24T07:51:34.992Z,39.73
2023-05-24T07:52:34.859Z,39.76
2023-05-24T07:53:35.852Z,39.83
2023-05-24T07:54:35.244Z,40.18
2023-05-24T07:55:38.072Z,40.21
2023-05-24T07:57:34.851Z,40.52
2023-05-24T07:58:34.828Z,40.70
2023-05-24T07:59:35.418Z,40.75
2023-05-24T08:00:34.821Z,40.95
2023-05-24T08:01:35.243Z,40.95
2023-05-24T08:02:34.947Z,40.99
2023-05-24T08:03:34.913Z,41.41
2023-05-24T08:04:37.976Z,41.45
2023-05-24T08:05:34.770Z,41.40
2023-05-24T08:06:34.890Z,41.63
2023-05-24T08:07:34.845Z,41.86
2023-05-24T08:08:34.778Z,41.91
2023-05-24T08:09:38.058Z,42.01
2023-05-24T08:10:34.873Z,42.09
2023-05-24T08:11:35.920Z,42.10
2023-05-24T08:12:34.714Z,42.20
2023-05-24T08:13:34.748Z,42.10
2023-05-24T08:14:34.967Z,42.13
2023-05-24T08:15:34.950Z,42.37
2023-05-24T08:16:34.748Z,42.36
2023-05-24T08:17:34.807Z,42.36
2023-05-24T08:18:34.813Z,42.34
2023-05-24T08:19:34.864Z,42.52
2023-05-24T08:20:34.990Z,42.72
2023-05-24T08:21:35.242Z,42.46
2023-05-24T08:22:35.035Z,42.51
2023-05-24T08:23:35.090Z,42.55
2023-05-24T08:24:35.131Z,42.53
2023-05-24T08:25:35.211Z,42.69
2023-05-24T08:26:35.240Z,42.66
2023-05-24T08:27:35.311Z,42.80
2023-05-24T08:28:36.106Z,42.79
2023-05-24T08:29:35.398Z,42.74
2023-05-24T08:30:35.438Z,42.64
2023-05-24T08:31:35.810Z,42.47
2023-05-24T08:32:35.565Z,42.65
2023-05-24T08:33:35.583Z,42.99
2023-05-24T08:34:35.634Z,42.68
2023-05-24T08:35:35.700Z,42.80
2023-05-24T08:36:35.734Z,42.96
2023-05-24T08:37:35.738Z,42.96
2023-05-24T08:38:39.432Z,43.33
2023-05-24T08:39:37.244Z,43.42
2023-05-24T08:40:36.234Z,43.00
2023-05-24T08:41:35.863Z,42.97
2023-05-24T08:42:36.083Z,43.15
2023-05-24T08:43:35.931Z,42.94
2023-05-24T08:44:35.930Z,42.67
2023-05-24T08:45:36.248Z,43.01
2023-05-24T08:46:36.041Z,43.21
2023-05-24T08:47:36.056Z,42.98
2023-05-24T08:48:36.133Z,42.67
2023-05-24T08:49:36.098Z,42.19
2023-05-24T08:50:36.136Z,42.03
2023-05-24T08:51:36.589Z,41.79
2023-05-24T08:52:51.791Z,41.77
2023-05-24T08:54:08.040Z,41.87
2023-05-24T08:54:36.165Z,41.99
2023-05-24T08:55:36.153Z,41.96
2023-05-24T08:56:36.153Z,42.22
2023-05-24T08:57:36.436Z,42.40
2023-05-24T08:58:36.141Z,42.03
2023-05-24T08:59:36.138Z,41.91
2023-05-24T09:00:36.253Z,41.89
2023-05-24T09:01:36.917Z,41.95
2023-05-24T09:02:37.188Z,42.20
2023-05-24T09:03:37.274Z,42.17
2023-05-24T09:04:36.225Z,42.32
2023-05-24T09:05:36.246Z,42.41
2023-05-24T09:06:36.271Z,42.32
2023-05-24T09:07:36.307Z,42.45
2023-05-24T09:08:36.325Z,42.56
2023-05-24T09:09:36.519Z,42.56
2023-05-24T09:10:49.353Z,42.71
2023-05-24T09:11:38.082Z,42.66
2023-05-24T09:12:39.717Z,42.75
2023-05-24T09:13:36.353Z,42.71
2023-05-24T09:14:36.359Z,42.66
2023-05-24T09:15:36.555Z,42.88
2023-05-24T09:16:36.426Z,42.92
2023-05-24T09:17:36.459Z,42.62
2023-05-24T09:18:36.326Z,42.70
2023-05-24T09:19:37.019Z,42.74
2023-05-24T09:20:36.384Z,42.85
2023-05-24T09:21:36.375Z,42.88
2023-05-24T09:22:39.572Z,42.99
2023-05-24T09:23:36.431Z,43.01
2023-05-24T09:24:36.767Z,42.89
2023-05-24T09:25:36.483Z,42.93
2023-05-24T09:26:37.267Z,42.94
2023-05-24T09:27:36.528Z,43.24
2023-05-24T09:28:36.537Z,42.85
2023-05-24T09:29:37.071Z,42.74
2023-05-24T09:30:36.608Z,42.85
2023-05-24T09:32:09.075Z,43.06
2023-05-24T09:32:36.904Z,42.52
2023-05-24T09:33:36.746Z,42.74
2023-05-24T09:34:36.874Z,42.87
2023-05-24T09:35:37.856Z,43.08
2023-05-24T09:36:37.751Z,43.10
2023-05-24T09:37:36.628Z,43.38
2023-05-24T09:38:36.922Z,43.21
2023-05-24T09:39:36.759Z,43.17
2023-05-24T09:40:36.560Z,43.02
2023-05-24T09:41:37.765Z,43.37
2023-05-24T09:42:36.869Z,43.14
2023-05-24T09:43:36.814Z,43.31
2023-05-24T09:44:37.874Z,43.23
2023-05-24T09:45:36.684Z,43.40
2023-05-24T09:46:36.798Z,43.24
2023-05-24T09:47:36.722Z,43.33
2023-05-24T09:48:36.757Z,43.03
2023-05-24T09:49:36.898Z,43.05
2023-05-24T09:50:36.794Z,42.85
2023-05-24T09:51:37.326Z,43.14
2023-05-24T09:52:36.879Z,43.38
2023-05-24T09:53:36.927Z,43.12
2023-05-24T09:54:37.276Z,43.36
2023-05-24T09:55:37.057Z,43.50
2023-05-24T09:56:37.264Z,43.38
2023-05-24T09:57:37.137Z,43.40
2023-05-24T09:58:37.217Z,43.34
2023-05-24T09:59:37.275Z,43.54
2023-05-24T10:00:37.319Z,43.53
2023-05-24T10:01:37.455Z,43.78
2023-05-24T10:02:51.410Z,43.75
2023-05-24T10:03:38.007Z,43.77
2023-05-24T10:04:37.468Z,43.92
2023-05-24T10:05:38.143Z,43.60
2023-05-24T10:06:37.840Z,43.56
2023-05-24T10:07:37.432Z,43.57
2023-05-24T10:08:37.771Z,43.35
2023-05-24T10:09:40.596Z,43.26
2023-05-24T10:10:37.399Z,43.39
2023-05-24T10:11:37.402Z,43.45
2023-05-24T10:12:37.772Z,43.57
2023-05-24T10:13:37.388Z,43.42
2023-05-24T10:14:37.359Z,43.49
2023-05-24T10:15:37.353Z,43.50
2023-05-24T10:16:37.390Z,43.58
2023-05-24T10:17:37.829Z,43.61
2023-05-24T10:18:37.338Z,43.53
2023-05-24T10:19:37.325Z,43.61
2023-05-24T10:20:37.361Z,43.53
2023-05-24T10:21:37.458Z,43.59
2023-05-24T10:22:37.916Z,43.68
2023-05-24T10:23:37.333Z,43.58
2023-05-24T10:24:37.286Z,43.57
2023-05-24T10:25:37.287Z,43.61
2023-05-24T10:26:37.805Z,43.81
2023-05-24T10:27:37.294Z,43.76
2023-05-24T10:28:37.355Z,43.77
2023-05-24T10:29:37.330Z,43.82
2023-05-24T10:30:37.293Z,43.88
2023-05-24T10:31:37.319Z,43.62
2023-05-24T10:32:37.338Z,43.75
2023-05-24T10:33:37.221Z,43.73
2023-05-24T10:34:37.305Z,43.85
2023-05-24T10:35:37.299Z,43.76
2023-05-24T10:36:37.267Z,43.62
2023-05-24T10:37:37.212Z,43.58
2023-05-24T10:38:37.284Z,43.53
2023-05-24T10:39:38.308Z,43.29
2023-05-24T10:40:37.261Z,43.19
2023-05-24T10:41:37.272Z,43.18
2023-05-24T10:42:37.342Z,43.33
2023-05-24T10:43:37.804Z,43.61
2023-05-24T10:44:37.390Z,43.69
2023-05-24T10:45:37.412Z,44.14
2023-05-24T10:46:37.475Z,44.35
2023-05-24T10:47:39.047Z,44.42
2023-05-24T10:48:37.454Z,44.45
2023-05-24T10:49:37.421Z,44.44
2023-05-24T10:50:37.459Z,44.40
2023-05-24T10:51:37.409Z,44.36
2023-05-24T10:52:37.426Z,44.35
2023-05-24T10:53:37.395Z,44.31
2023-05-24T10:54:37.407Z,44.16
2023-05-24T10:55:37.402Z,44.14
2023-05-24T10:56:37.371Z,44.04
2023-05-24T10:57:37.367Z,43.97
2023-05-24T10:58:37.360Z,44.03
2023-05-24T10:59:37.374Z,43.94
2023-05-24T11:00:37.414Z,43.94
2023-05-24T11:01:37.361Z,43.91
2023-05-24T11:02:37.884Z,43.81
2023-05-24T11:03:37.320Z,43.75
2023-05-24T11:04:37.331Z,43.71
2023-05-24T11:05:37.342Z,43.68
2023-05-24T11:06:37.301Z,43.58
2023-05-24T11:07:37.302Z,43.61
2023-05-24T11:08:37.288Z,43.68
2023-05-24T11:09:37.284Z,42.66
2023-05-24T11:10:37.272Z,42.41
2023-05-24T11:11:37.324Z,42.53
2023-05-24T11:12:37.293Z,42.66
2023-05-24T11:13:37.278Z,42.92
2023-05-24T11:14:37.297Z,42.94
2023-05-24T11:15:37.245Z,42.93
2023-05-24T11:16:37.848Z,42.70
2023-05-24T11:17:37.386Z,42.57
2023-05-24T11:18:37.369Z,42.57
2023-05-24T11:19:37.403Z,42.57
2023-05-24T11:20:37.482Z,42.56
2023-05-24T11:21:37.453Z,42.51
2023-05-24T11:22:37.473Z,42.54
2023-05-24T11:23:38.478Z,42.54
2023-05-24T11:24:37.514Z,42.17
2023-05-24T11:25:37.537Z,42.23
2023-05-24T11:26:37.552Z,42.09
2023-05-24T11:27:37.603Z,42.14
2023-05-24T11:28:37.764Z,42.06
2023-05-24T11:29:38.332Z,42.11
2023-05-24T11:30:37.625Z,42.15
2023-05-24T11:31:41.120Z,42.09
2023-05-24T11:32:37.694Z,42.00
2023-05-24T11:33:37.635Z,42.02
2023-05-24T11:34:37.806Z,42.09
2023-05-24T11:35:37.619Z,41.65
2023-05-24T11:36:37.812Z,41.47
2023-05-24T11:37:46.039Z,41.12
2023-05-24T11:38:37.652Z,41.42
2023-05-24T11:39:37.729Z,41.79
2023-05-24T11:40:37.591Z,41.90
2023-05-24T11:41:37.587Z,42.02
2023-05-24T11:42:37.610Z,41.00
2023-05-24T11:43:37.615Z,40.71
2023-05-24T11:44:37.569Z,40.15
2023-05-24T11:45:37.590Z,40.34
2023-05-24T11:46:37.550Z,40.91
2023-05-24T11:47:37.583Z,41.51
2023-05-24T11:48:49.827Z,42.03
2023-05-24T11:49:37.530Z,42.41
2023-05-24T11:50:48.693Z,42.61
2023-05-24T11:51:37.554Z,43.00
2023-05-24T11:52:37.504Z,43.11
2023-05-24T11:53:37.667Z,43.63
2023-05-24T11:54:37.509Z,43.79
2023-05-24T11:55:37.710Z,44.12
2023-05-24T11:56:37.477Z,44.57
2023-05-24T11:57:37.465Z,44.12
2023-05-24T11:58:37.467Z,44.69
2023-05-24T11:59:37.479Z,45.21
2023-05-24T12:00:37.457Z,44.92
2023-05-24T12:01:37.443Z,45.08
2023-05-24T12:02:37.526Z,46.26
2023-05-24T12:03:37.562Z,47.57
2023-05-24T12:04:37.959Z,48.09
2023-05-24T12:05:37.407Z,48.33
2023-05-24T12:06:38.025Z,48.31
2023-05-24T12:07:37.442Z,48.25
2023-05-24T12:08:37.400Z,47.55
2023-05-24T12:09:37.385Z,47.51
2023-05-24T12:10:37.415Z,47.35
2023-05-24T12:11:37.829Z,46.89
2023-05-24T12:12:45.753Z,46.82
2023-05-24T12:13:37.353Z,46.95
2023-05-24T12:14:37.353Z,46.97
2023-05-24T12:15:37.376Z,46.88
2023-05-24T12:16:37.350Z,46.88
2023-05-24T12:17:37.374Z,46.75
2023-05-24T12:18:38.627Z,46.65
2023-05-24T12:19:37.482Z,46.60
2023-05-24T12:20:37.405Z,46.46
2023-05-24T12:21:37.318Z,46.38
2023-05-24T12:22:37.295Z,46.36
2023-05-24T12:23:37.649Z,46.23
2023-05-24T12:24:37.301Z,46.18
2023-05-24T12:25:37.265Z,46.06
2023-05-24T12:26:37.269Z,45.99
2023-05-24T12:27:37.275Z,45.94
2023-05-24T12:28:37.278Z,45.87
2023-05-24T12:29:37.289Z,45.83
2023-05-24T12:30:37.321Z,45.79
2023-05-24T12:31:37.417Z,45.68
2023-05-24T12:32:37.435Z,45.69
2023-05-24T12:33:37.324Z,45.72
2023-05-24T12:34:37.336Z,45.71
2023-05-24T12:35:37.346Z,45.70
2023-05-24T12:36:37.841Z,45.68
2023-05-24T12:37:37.842Z,45.63
2023-05-24T12:38:37.503Z,45.61
2023-05-24T12:39:37.592Z,45.85
2023-05-24T12:40:37.624Z,45.78
2023-05-24T12:41:37.661Z,45.81
2023-05-24T12:42:37.724Z,45.98
2023-05-24T12:43:37.741Z,45.94
2023-05-24T12:44:37.799Z,45.92
2023-05-24T12:45:37.823Z,45.87
2023-05-24T12:46:37.859Z,45.91
2023-05-24T12:47:37.892Z,45.97
2023-05-24T12:48:37.900Z,46.00
2023-05-24T12:49:37.919Z,45.97
2023-05-24T12:50:37.969Z,46.04
2023-05-24T12:51:37.975Z,46.01
2023-05-24T12:52:37.987Z,46.04
2023-05-24T12:53:38.017Z,46.08
2023-05-24T12:54:38.032Z,46.09
2023-05-24T12:55:44.873Z,46.20
2023-05-24T12:56:38.138Z,45.75
2023-05-24T12:57:38.343Z,45.17
2023-05-24T12:58:38.054Z,43.61
2023-05-24T12:59:38.027Z,42.82